sensor_id;sensor_type;location;lat;lon;timestamp;P1;durP1;ratioP1;P2;durP2;ratioP2
2105;SDS011;1059;52.548;13.408;2023-02-07T00:01:21;32.67;;;19.97;;
2105;SDS011;1059;52.548;13.408;2023-02-07T00:03:48;29.07;;;19.43;;
2105;SDS011;1059;52.548;13.408;2023-02-07T00:06:17;32.13;;;19.47;;
2105;SDS011;1059;52.548;13.408;2023-02-07T00:08:47;31.97;;;19.40;;
2105;SDS011;1059;52.548;13.408;2023-02-07T00:11:15;26.47;;;18.87;;
2105;SDS011;1059;52.548;13.408;2023-02-07T00:13:44;27.57;;;18.73;;
2105;SDS011;1059;52.548;13.408;2023-02-07T00:16:13;35.50;;;20.50;;
2105;SDS011;1059;52.548;13.408;2023-02-07T00:18:40;32.93;;;19.60;;
2105;SDS011;1059;52.548;13.408;2023-02-07T00:21:08;28.50;;;19.23;;
2105;SDS011;1059;52.548;13.408;2023-02-07T00:23:37;27.60;;;18.87;;
2105;SDS011;1059;52.548;13.408;2023-02-07T00:26:05;30.47;;;18.40;;
2105;SDS011;1059;52.548;13.408;2023-02-07T00:28:32;29.80;;;17.20;;
2105;SDS011;1059;52.548;13.408;2023-02-07T00:31:04;28.40;;;17.73;;
2105;SDS011;1059;52.548;13.408;2023-02-07T00:33:32;25.63;;;17.77;;
2105;SDS011;1059;52.548;13.408;2023-02-07T00:36:00;28.20;;;17.17;;
2105;SDS011;1059;52.548;13.408;2023-02-07T00:38:29;27.63;;;18.47;;
2105;SDS011;1059;52.548;13.408;2023-02-07T00:40:57;29.77;;;19.07;;
2105;SDS011;1059;52.548;13.408;2023-02-07T00:43:25;30.77;;;19.53;;
2105;SDS011;1059;52.548;13.408;2023-02-07T00:45:54;31.37;;;19.17;;
2105;SDS011;1059;52.548;13.408;2023-02-07T00:48:20;28.00;;;19.87;;
2105;SDS011;1059;52.548;13.408;2023-02-07T00:50:47;31.50;;;19.43;;
2105;SDS011;1059;52.548;13.408;2023-02-07T00:53:14;29.77;;;18.13;;
2105;SDS011;1059;52.548;13.408;2023-02-07T00:55:41;29.20;;;18.33;;
2105;SDS011;1059;52.548;13.408;2023-02-07T00:58:09;26.23;;;16.43;;
2105;SDS011;1059;52.548;13.408;2023-02-07T01:00:36;26.80;;;18.50;;
2105;SDS011;1059;52.548;13.408;2023-02-07T01:03:03;28.60;;;18.07;;
2105;SDS011;1059;52.548;13.408;2023-02-07T01:05:30;31.90;;;19.30;;
2105;SDS011;1059;52.548;13.408;2023-02-07T01:07:57;35.10;;;21.23;;
2105;SDS011;1059;52.548;13.408;2023-02-07T01:10:24;34.30;;;22.60;;
2105;SDS011;1059;52.548;13.408;2023-02-07T01:12:51;37.33;;;24.20;;
2105;SDS011;1059;52.548;13.408;2023-02-07T01:15:19;42.30;;;25.63;;
2105;SDS011;1059;52.548;13.408;2023-02-07T01:17:46;38.37;;;26.27;;
2105;SDS011;1059;52.548;13.408;2023-02-07T01:20:13;42.47;;;25.23;;
2105;SDS011;1059;52.548;13.408;2023-02-07T01:22:40;42.60;;;25.57;;
2105;SDS011;1059;52.548;13.408;2023-02-07T01:25:07;40.50;;;26.47;;
2105;SDS011;1059;52.548;13.408;2023-02-07T01:27:34;42.77;;;28.63;;
2105;SDS011;1059;52.548;13.408;2023-02-07T01:30:02;41.67;;;25.77;;
2105;SDS011;1059;52.548;13.408;2023-02-07T01:32:32;42.40;;;26.37;;
2105;SDS011;1059;52.548;13.408;2023-02-07T01:34:59;43.20;;;26.73;;
2105;SDS011;1059;52.548;13.408;2023-02-07T01:37:26;43.23;;;26.10;;
2105;SDS011;1059;52.548;13.408;2023-02-07T01:39:53;40.07;;;25.77;;
2105;SDS011;1059;52.548;13.408;2023-02-07T01:42:22;43.17;;;27.00;;
2105;SDS011;1059;52.548;13.408;2023-02-07T01:45:03;42.67;;;27.90;;
2105;SDS011;1059;52.548;13.408;2023-02-07T01:47:38;48.70;;;29.13;;
2105;SDS011;1059;52.548;13.408;2023-02-07T01:50:06;43.30;;;28.43;;
2105;SDS011;1059;52.548;13.408;2023-02-07T01:52:35;41.20;;;27.50;;
2105;SDS011;1059;52.548;13.408;2023-02-07T01:55:05;45.40;;;27.50;;
2105;SDS011;1059;52.548;13.408;2023-02-07T01:57:35;41.57;;;26.63;;
2105;SDS011;1059;52.548;13.408;2023-02-07T02:00:03;39.73;;;26.80;;
2105;SDS011;1059;52.548;13.408;2023-02-07T02:02:31;49.53;;;29.87;;
2105;SDS011;1059;52.548;13.408;2023-02-07T02:05:02;36.07;;;26.80;;
2105;SDS011;1059;52.548;13.408;2023-02-07T02:07:30;43.77;;;28.57;;
2105;SDS011;1059;52.548;13.408;2023-02-07T02:09:58;46.97;;;29.67;;
2105;SDS011;1059;52.548;13.408;2023-02-07T02:12:30;44.80;;;27.90;;
2105;SDS011;1059;52.548;13.408;2023-02-07T02:15:17;49.23;;;28.27;;
2105;SDS011;1059;52.548;13.408;2023-02-07T02:17:56;41.97;;;26.50;;
2105;SDS011;1059;52.548;13.408;2023-02-07T02:20:43;42.37;;;26.60;;
2105;SDS011;1059;52.548;13.408;2023-02-07T02:23:38;43.57;;;28.53;;
2105;SDS011;1059;52.548;13.408;2023-02-07T02:26:16;45.43;;;30.03;;
2105;SDS011;1059;52.548;13.408;2023-02-07T02:29:15;48.13;;;28.07;;
2105;SDS011;1059;52.548;13.408;2023-02-07T02:34:59;47.27;;;28.17;;
2105;SDS011;1059;52.548;13.408;2023-02-07T02:37:34;39.37;;;27.83;;
2105;SDS011;1059;52.548;13.408;2023-02-07T02:40:13;45.00;;;28.90;;
2105;SDS011;1059;52.548;13.408;2023-02-07T02:42:45;36.63;;;22.87;;
2105;SDS011;1059;52.548;13.408;2023-02-07T02:45:17;39.83;;;26.47;;
2105;SDS011;1059;52.548;13.408;2023-02-07T02:47:50;38.27;;;25.53;;
2105;SDS011;1059;52.548;13.408;2023-02-07T02:50:20;41.10;;;26.73;;
2105;SDS011;1059;52.548;13.408;2023-02-07T02:52:48;41.53;;;26.60;;
2105;SDS011;1059;52.548;13.408;2023-02-07T02:55:15;43.77;;;26.63;;
2105;SDS011;1059;52.548;13.408;2023-02-07T02:57:56;40.30;;;26.20;;
2105;SDS011;1059;52.548;13.408;2023-02-07T03:00:36;42.37;;;25.70;;
2105;SDS011;1059;52.548;13.408;2023-02-07T03:03:18;35.73;;;23.23;;
2105;SDS011;1059;52.548;13.408;2023-02-07T03:06:05;40.00;;;22.83;;
2105;SDS011;1059;52.548;13.408;2023-02-07T03:08:44;32.40;;;22.60;;
2105;SDS011;1059;52.548;13.408;2023-02-07T03:11:16;38.17;;;22.00;;
2105;SDS011;1059;52.548;13.408;2023-02-07T03:13:49;33.97;;;21.43;;
2105;SDS011;1059;52.548;13.408;2023-02-07T03:16:27;35.23;;;21.57;;
2105;SDS011;1059;52.548;13.408;2023-02-07T03:19:00;39.90;;;21.10;;
2105;SDS011;1059;52.548;13.408;2023-02-07T03:21:34;35.50;;;21.77;;
2105;SDS011;1059;52.548;13.408;2023-02-07T03:24:06;38.13;;;20.57;;
2105;SDS011;1059;52.548;13.408;2023-02-07T03:26:37;31.27;;;19.93;;
2105;SDS011;1059;52.548;13.408;2023-02-07T03:29:06;33.00;;;19.70;;
2105;SDS011;1059;52.548;13.408;2023-02-07T03:31:35;35.23;;;19.93;;
2105;SDS011;1059;52.548;13.408;2023-02-07T03:34:07;35.77;;;21.07;;
2105;SDS011;1059;52.548;13.408;2023-02-07T03:36:41;34.20;;;20.93;;
2105;SDS011;1059;52.548;13.408;2023-02-07T03:39:11;32.57;;;20.87;;
2105;SDS011;1059;52.548;13.408;2023-02-07T03:41:39;31.07;;;19.20;;
2105;SDS011;1059;52.548;13.408;2023-02-07T03:44:09;30.23;;;20.73;;
2105;SDS011;1059;52.548;13.408;2023-02-07T03:46:40;28.70;;;18.80;;
2105;SDS011;1059;52.548;13.408;2023-02-07T03:49:07;30.20;;;19.60;;
2105;SDS011;1059;52.548;13.408;2023-02-07T03:51:35;35.07;;;20.47;;
2105;SDS011;1059;52.548;13.408;2023-02-07T03:54:04;30.17;;;19.93;;
2105;SDS011;1059;52.548;13.408;2023-02-07T03:56:31;36.77;;;23.47;;
2105;SDS011;1059;52.548;13.408;2023-02-07T03:58:58;33.10;;;20.50;;
2105;SDS011;1059;52.548;13.408;2023-02-07T04:01:24;32.33;;;19.80;;
2105;SDS011;1059;52.548;13.408;2023-02-07T04:03:51;32.57;;;20.27;;
2105;SDS011;1059;52.548;13.408;2023-02-07T04:06:18;33.17;;;20.03;;
2105;SDS011;1059;52.548;13.408;2023-02-07T04:08:46;31.77;;;20.27;;
2105;SDS011;1059;52.548;13.408;2023-02-07T04:11:14;33.87;;;21.00;;
2105;SDS011;1059;52.548;13.408;2023-02-07T04:13:41;34.20;;;22.43;;
2105;SDS011;1059;52.548;13.408;2023-02-07T04:16:07;34.00;;;20.43;;
2105;SDS011;1059;52.548;13.408;2023-02-07T04:18:34;37.07;;;22.97;;
2105;SDS011;1059;52.548;13.408;2023-02-07T04:21:02;27.57;;;19.13;;
2105;SDS011;1059;52.548;13.408;2023-02-07T04:23:30;33.37;;;21.57;;
2105;SDS011;1059;52.548;13.408;2023-02-07T04:25:58;37.60;;;22.90;;
2105;SDS011;1059;52.548;13.408;2023-02-07T04:28:26;32.47;;;20.23;;
2105;SDS011;1059;52.548;13.408;2023-02-07T04:30:54;32.23;;;21.17;;
2105;SDS011;1059;52.548;13.408;2023-02-07T04:33:21;33.27;;;20.40;;
2105;SDS011;1059;52.548;13.408;2023-02-07T04:35:52;38.93;;;23.17;;
2105;SDS011;1059;52.548;13.408;2023-02-07T04:38:20;37.10;;;22.93;;
2105;SDS011;1059;52.548;13.408;2023-02-07T04:40:47;44.03;;;25.03;;
2105;SDS011;1059;52.548;13.408;2023-02-07T04:43:14;35.10;;;21.70;;
2105;SDS011;1059;52.548;13.408;2023-02-07T04:45:44;36.57;;;22.17;;
2105;SDS011;1059;52.548;13.408;2023-02-07T04:48:11;41.63;;;24.53;;
2105;SDS011;1059;52.548;13.408;2023-02-07T04:50:38;35.10;;;22.37;;
2105;SDS011;1059;52.548;13.408;2023-02-07T04:53:05;31.53;;;21.57;;
2105;SDS011;1059;52.548;13.408;2023-02-07T04:55:32;39.97;;;22.93;;
2105;SDS011;1059;52.548;13.408;2023-02-07T04:58:01;35.70;;;23.53;;
2105;SDS011;1059;52.548;13.408;2023-02-07T05:00:28;36.27;;;23.77;;
2105;SDS011;1059;52.548;13.408;2023-02-07T05:02:56;36.53;;;24.87;;
2105;SDS011;1059;52.548;13.408;2023-02-07T05:05:23;36.37;;;23.93;;
2105;SDS011;1059;52.548;13.408;2023-02-07T05:07:50;34.83;;;23.57;;
2105;SDS011;1059;52.548;13.408;2023-02-07T05:10:17;43.90;;;24.37;;
2105;SDS011;1059;52.548;13.408;2023-02-07T05:12:44;38.67;;;25.60;;
2105;SDS011;1059;52.548;13.408;2023-02-07T05:15:11;38.50;;;24.57;;
2105;SDS011;1059;52.548;13.408;2023-02-07T05:17:38;41.80;;;22.87;;
2105;SDS011;1059;52.548;13.408;2023-02-07T05:20:06;35.87;;;22.63;;
2105;SDS011;1059;52.548;13.408;2023-02-07T05:22:34;33.27;;;21.30;;
2105;SDS011;1059;52.548;13.408;2023-02-07T05:25:01;35.33;;;22.50;;
2105;SDS011;1059;52.548;13.408;2023-02-07T05:27:28;32.07;;;20.80;;
2105;SDS011;1059;52.548;13.408;2023-02-07T05:29:55;31.10;;;20.93;;
2105;SDS011;1059;52.548;13.408;2023-02-07T05:32:23;30.33;;;21.13;;
2105;SDS011;1059;52.548;13.408;2023-02-07T05:35:09;28.53;;;20.93;;
2105;SDS011;1059;52.548;13.408;2023-02-07T05:37:36;33.10;;;21.10;;
2105;SDS011;1059;52.548;13.408;2023-02-07T05:40:03;35.67;;;22.27;;
2105;SDS011;1059;52.548;13.408;2023-02-07T05:42:30;38.33;;;22.80;;
2105;SDS011;1059;52.548;13.408;2023-02-07T05:44:57;34.90;;;22.90;;
2105;SDS011;1059;52.548;13.408;2023-02-07T05:47:24;36.53;;;24.33;;
2105;SDS011;1059;52.548;13.408;2023-02-07T05:49:51;36.37;;;22.70;;
2105;SDS011;1059;52.548;13.408;2023-02-07T05:52:19;33.70;;;21.80;;
2105;SDS011;1059;52.548;13.408;2023-02-07T05:54:46;35.33;;;23.13;;
2105;SDS011;1059;52.548;13.408;2023-02-07T05:57:13;37.40;;;24.73;;
2105;SDS011;1059;52.548;13.408;2023-02-07T05:59:40;34.50;;;22.20;;
2105;SDS011;1059;52.548;13.408;2023-02-07T06:02:07;36.07;;;22.90;;
2105;SDS011;1059;52.548;13.408;2023-02-07T06:04:34;42.40;;;25.70;;
2105;SDS011;1059;52.548;13.408;2023-02-07T06:07:00;44.03;;;25.83;;
2105;SDS011;1059;52.548;13.408;2023-02-07T06:09:29;39.37;;;23.50;;
2105;SDS011;1059;52.548;13.408;2023-02-07T06:11:56;37.83;;;24.93;;
2105;SDS011;1059;52.548;13.408;2023-02-07T06:14:23;39.70;;;23.43;;
2105;SDS011;1059;52.548;13.408;2023-02-07T06:16:49;31.43;;;22.40;;
2105;SDS011;1059;52.548;13.408;2023-02-07T06:19:16;36.63;;;24.10;;
2105;SDS011;1059;52.548;13.408;2023-02-07T06:21:43;42.10;;;24.70;;
2105;SDS011;1059;52.548;13.408;2023-02-07T06:24:10;32.40;;;22.53;;
2105;SDS011;1059;52.548;13.408;2023-02-07T06:26:38;38.67;;;25.80;;
2105;SDS011;1059;52.548;13.408;2023-02-07T06:29:05;40.77;;;24.60;;
2105;SDS011;1059;52.548;13.408;2023-02-07T06:31:32;35.50;;;23.37;;
2105;SDS011;1059;52.548;13.408;2023-02-07T06:33:59;37.67;;;23.63;;
2105;SDS011;1059;52.548;13.408;2023-02-07T06:36:26;38.40;;;23.13;;
2105;SDS011;1059;52.548;13.408;2023-02-07T06:38:53;34.50;;;22.47;;
2105;SDS011;1059;52.548;13.408;2023-02-07T06:41:19;32.87;;;23.70;;
2105;SDS011;1059;52.548;13.408;2023-02-07T06:43:48;36.43;;;25.87;;
2105;SDS011;1059;52.548;13.408;2023-02-07T06:46:15;39.47;;;22.77;;
2105;SDS011;1059;52.548;13.408;2023-02-07T06:48:42;31.70;;;22.83;;
2105;SDS011;1059;52.548;13.408;2023-02-07T06:51:09;35.47;;;23.60;;
2105;SDS011;1059;52.548;13.408;2023-02-07T06:53:36;34.83;;;23.90;;
2105;SDS011;1059;52.548;13.408;2023-02-07T06:56:03;39.53;;;25.57;;
2105;SDS011;1059;52.548;13.408;2023-02-07T06:58:30;37.50;;;25.23;;
2105;SDS011;1059;52.548;13.408;2023-02-07T07:01:01;36.37;;;23.90;;
2105;SDS011;1059;52.548;13.408;2023-02-07T07:03:28;40.03;;;23.60;;
2105;SDS011;1059;52.548;13.408;2023-02-07T07:05:56;40.03;;;25.40;;
2105;SDS011;1059;52.548;13.408;2023-02-07T07:08:23;40.23;;;25.20;;
2105;SDS011;1059;52.548;13.408;2023-02-07T07:10:51;36.50;;;23.80;;
2105;SDS011;1059;52.548;13.408;2023-02-07T07:13:18;46.60;;;24.40;;
2105;SDS011;1059;52.548;13.408;2023-02-07T07:15:45;35.17;;;23.50;;
2105;SDS011;1059;52.548;13.408;2023-02-07T07:18:14;30.63;;;20.77;;
2105;SDS011;1059;52.548;13.408;2023-02-07T07:20:41;40.03;;;24.77;;
2105;SDS011;1059;52.548;13.408;2023-02-07T07:23:07;32.17;;;23.50;;
2105;SDS011;1059;52.548;13.408;2023-02-07T07:25:34;37.53;;;22.07;;
2105;SDS011;1059;52.548;13.408;2023-02-07T07:28:01;36.87;;;24.53;;
2105;SDS011;1059;52.548;13.408;2023-02-07T07:30:28;39.00;;;27.00;;
2105;SDS011;1059;52.548;13.408;2023-02-07T07:32:56;41.33;;;24.80;;
2105;SDS011;1059;52.548;13.408;2023-02-07T07:35:24;34.03;;;23.67;;
2105;SDS011;1059;52.548;13.408;2023-02-07T07:37:52;39.97;;;25.90;;
2105;SDS011;1059;52.548;13.408;2023-02-07T07:40:19;35.20;;;24.97;;
2105;SDS011;1059;52.548;13.408;2023-02-07T07:42:46;41.30;;;24.03;;
2105;SDS011;1059;52.548;13.408;2023-02-07T07:45:13;38.23;;;23.73;;
2105;SDS011;1059;52.548;13.408;2023-02-07T07:47:40;38.10;;;24.30;;
2105;SDS011;1059;52.548;13.408;2023-02-07T07:50:07;37.67;;;22.70;;
2105;SDS011;1059;52.548;13.408;2023-02-07T07:52:36;46.43;;;24.33;;
2105;SDS011;1059;52.548;13.408;2023-02-07T07:55:03;36.70;;;25.07;;
2105;SDS011;1059;52.548;13.408;2023-02-07T07:57:30;38.83;;;24.10;;
2105;SDS011;1059;52.548;13.408;2023-02-07T07:59:57;35.10;;;22.57;;
2105;SDS011;1059;52.548;13.408;2023-02-07T08:02:24;44.43;;;23.83;;
2105;SDS011;1059;52.548;13.408;2023-02-07T08:04:51;32.77;;;21.87;;
2105;SDS011;1059;52.548;13.408;2023-02-07T08:07:18;35.00;;;23.80;;
2105;SDS011;1059;52.548;13.408;2023-02-07T08:09:46;35.67;;;21.90;;
2105;SDS011;1059;52.548;13.408;2023-02-07T08:12:13;31.37;;;23.53;;
2105;SDS011;1059;52.548;13.408;2023-02-07T08:14:40;38.57;;;24.90;;
2105;SDS011;1059;52.548;13.408;2023-02-07T08:17:06;35.00;;;23.30;;
2105;SDS011;1059;52.548;13.408;2023-02-07T08:19:33;30.53;;;22.80;;
2105;SDS011;1059;52.548;13.408;2023-02-07T08:22:02;39.07;;;24.73;;
2105;SDS011;1059;52.548;13.408;2023-02-07T08:24:29;42.03;;;24.00;;
2105;SDS011;1059;52.548;13.408;2023-02-07T08:26:57;33.73;;;23.63;;
2105;SDS011;1059;52.548;13.408;2023-02-07T08:29:24;40.67;;;24.73;;
2105;SDS011;1059;52.548;13.408;2023-02-07T08:31:51;35.30;;;22.93;;
2105;SDS011;1059;52.548;13.408;2023-02-07T08:34:18;34.63;;;21.83;;
2105;SDS011;1059;52.548;13.408;2023-02-07T08:36:48;36.10;;;23.70;;
2105;SDS011;1059;52.548;13.408;2023-02-07T08:39:15;35.13;;;23.40;;
2105;SDS011;1059;52.548;13.408;2023-02-07T08:41:41;34.90;;;23.33;;
2105;SDS011;1059;52.548;13.408;2023-02-07T08:44:10;32.17;;;22.57;;
2105;SDS011;1059;52.548;13.408;2023-02-07T08:46:36;36.30;;;22.50;;
2105;SDS011;1059;52.548;13.408;2023-02-07T08:49:03;35.07;;;22.23;;
2105;SDS011;1059;52.548;13.408;2023-02-07T08:51:30;35.63;;;23.33;;
2105;SDS011;1059;52.548;13.408;2023-02-07T08:53:57;41.53;;;23.50;;
2105;SDS011;1059;52.548;13.408;2023-02-07T08:56:24;35.83;;;23.00;;
2105;SDS011;1059;52.548;13.408;2023-02-07T08:58:51;37.83;;;22.60;;
2105;SDS011;1059;52.548;13.408;2023-02-07T09:01:19;33.67;;;21.30;;
2105;SDS011;1059;52.548;13.408;2023-02-07T09:03:46;38.77;;;21.50;;
2105;SDS011;1059;52.548;13.408;2023-02-07T09:06:13;33.73;;;21.63;;
2105;SDS011;1059;52.548;13.408;2023-02-07T09:08:40;34.93;;;23.10;;
2105;SDS011;1059;52.548;13.408;2023-02-07T09:11:06;32.90;;;20.93;;
2105;SDS011;1059;52.548;13.408;2023-02-07T09:13:33;26.20;;;18.40;;
2105;SDS011;1059;52.548;13.408;2023-02-07T09:16:00;30.60;;;18.83;;
2105;SDS011;1059;52.548;13.408;2023-02-07T09:18:31;29.50;;;19.17;;
2105;SDS011;1059;52.548;13.408;2023-02-07T09:20:58;28.90;;;19.17;;
2105;SDS011;1059;52.548;13.408;2023-02-07T09:23:25;25.20;;;18.90;;
2105;SDS011;1059;52.548;13.408;2023-02-07T09:25:52;29.73;;;19.00;;
2105;SDS011;1059;52.548;13.408;2023-02-07T09:28:20;34.03;;;18.33;;
2105;SDS011;1059;52.548;13.408;2023-02-07T09:30:47;26.20;;;17.83;;
2105;SDS011;1059;52.548;13.408;2023-02-07T09:33:14;38.47;;;20.33;;
2105;SDS011;1059;52.548;13.408;2023-02-07T09:35:43;28.53;;;19.60;;
2105;SDS011;1059;52.548;13.408;2023-02-07T09:38:12;30.07;;;18.83;;
2105;SDS011;1059;52.548;13.408;2023-02-07T09:40:44;33.10;;;19.43;;
2105;SDS011;1059;52.548;13.408;2023-02-07T09:43:14;25.57;;;18.20;;
2105;SDS011;1059;52.548;13.408;2023-02-07T09:45:52;31.90;;;19.37;;
2105;SDS011;1059;52.548;13.408;2023-02-07T09:48:22;29.77;;;20.37;;
2105;SDS011;1059;52.548;13.408;2023-02-07T09:50:54;28.60;;;18.37;;
2105;SDS011;1059;52.548;13.408;2023-02-07T09:53:25;27.40;;;17.77;;
2105;SDS011;1059;52.548;13.408;2023-02-07T09:56:06;27.20;;;18.27;;
2105;SDS011;1059;52.548;13.408;2023-02-07T09:58:36;29.53;;;18.43;;
2105;SDS011;1059;52.548;13.408;2023-02-07T10:01:10;23.20;;;15.27;;
2105;SDS011;1059;52.548;13.408;2023-02-07T10:03:42;23.37;;;16.07;;
2105;SDS011;1059;52.548;13.408;2023-02-07T10:06:19;24.87;;;17.20;;
2105;SDS011;1059;52.548;13.408;2023-02-07T10:08:52;28.20;;;16.87;;
2105;SDS011;1059;52.548;13.408;2023-02-07T10:11:22;24.50;;;16.50;;
2105;SDS011;1059;52.548;13.408;2023-02-07T10:14:02;31.63;;;18.40;;
2105;SDS011;1059;52.548;13.408;2023-02-07T10:16:51;25.70;;;16.17;;
2105;SDS011;1059;52.548;13.408;2023-02-07T10:19:31;25.47;;;16.90;;
2105;SDS011;1059;52.548;13.408;2023-02-07T10:22:11;23.87;;;16.60;;
2105;SDS011;1059;52.548;13.408;2023-02-07T10:24:53;22.87;;;14.87;;
2105;SDS011;1059;52.548;13.408;2023-02-07T10:27:34;24.73;;;15.30;;
2105;SDS011;1059;52.548;13.408;2023-02-07T10:30:07;26.07;;;17.10;;
2105;SDS011;1059;52.548;13.408;2023-02-07T10:32:41;24.70;;;15.43;;
2105;SDS011;1059;52.548;13.408;2023-02-07T10:35:13;23.30;;;15.03;;
2105;SDS011;1059;52.548;13.408;2023-02-07T10:37:45;23.70;;;15.40;;
2105;SDS011;1059;52.548;13.408;2023-02-07T10:40:16;24.90;;;15.03;;
2105;SDS011;1059;52.548;13.408;2023-02-07T10:42:49;28.13;;;16.93;;
2105;SDS011;1059;52.548;13.408;2023-02-07T10:45:21;28.93;;;16.40;;
2105;SDS011;1059;52.548;13.408;2023-02-07T10:47:48;26.27;;;16.20;;
2105;SDS011;1059;52.548;13.408;2023-02-07T10:50:16;25.80;;;17.53;;
2105;SDS011;1059;52.548;13.408;2023-02-07T10:52:48;25.90;;;17.93;;
2105;SDS011;1059;52.548;13.408;2023-02-07T10:55:18;29.30;;;16.20;;
2105;SDS011;1059;52.548;13.408;2023-02-07T10:57:58;29.20;;;16.50;;
2105;SDS011;1059;52.548;13.408;2023-02-07T11:00:26;26.90;;;17.43;;
2105;SDS011;1059;52.548;13.408;2023-02-07T11:02:54;29.37;;;17.07;;
2105;SDS011;1059;52.548;13.408;2023-02-07T11:05:28;28.97;;;18.50;;
2105;SDS011;1059;52.548;13.408;2023-02-07T11:07:59;27.60;;;16.93;;
2105;SDS011;1059;52.548;13.408;2023-02-07T11:10:28;24.40;;;17.67;;
2105;SDS011;1059;52.548;13.408;2023-02-07T11:13:00;28.17;;;16.50;;
2105;SDS011;1059;52.548;13.408;2023-02-07T11:15:31;23.27;;;15.93;;
2105;SDS011;1059;52.548;13.408;2023-02-07T11:18:03;25.43;;;16.83;;
2105;SDS011;1059;52.548;13.408;2023-02-07T11:20:32;23.90;;;16.13;;
2105;SDS011;1059;52.548;13.408;2023-02-07T11:23:04;24.40;;;17.33;;
2105;SDS011;1059;52.548;13.408;2023-02-07T11:25:34;27.00;;;15.07;;
2105;SDS011;1059;52.548;13.408;2023-02-07T11:28:02;24.80;;;16.77;;
2105;SDS011;1059;52.548;13.408;2023-02-07T11:30:31;23.13;;;15.70;;
2105;SDS011;1059;52.548;13.408;2023-02-07T11:33:02;26.63;;;16.47;;
2105;SDS011;1059;52.548;13.408;2023-02-07T11:35:30;24.60;;;17.60;;
2105;SDS011;1059;52.548;13.408;2023-02-07T11:37:58;25.80;;;16.30;;
2105;SDS011;1059;52.548;13.408;2023-02-07T11:40:29;22.93;;;16.07;;
2105;SDS011;1059;52.548;13.408;2023-02-07T11:43:02;27.17;;;17.20;;
2105;SDS011;1059;52.548;13.408;2023-02-07T11:45:37;28.30;;;16.77;;
2105;SDS011;1059;52.548;13.408;2023-02-07T11:48:13;21.40;;;15.30;;
2105;SDS011;1059;52.548;13.408;2023-02-07T11:50:43;25.57;;;17.27;;
2105;SDS011;1059;52.548;13.408;2023-02-07T11:53:16;26.90;;;18.00;;
2105;SDS011;1059;52.548;13.408;2023-02-07T11:55:50;23.93;;;16.30;;
2105;SDS011;1059;52.548;13.408;2023-02-07T11:58:22;22.80;;;15.50;;
2105;SDS011;1059;52.548;13.408;2023-02-07T12:00:57;25.50;;;16.23;;
2105;SDS011;1059;52.548;13.408;2023-02-07T12:03:27;25.20;;;17.00;;
2105;SDS011;1059;52.548;13.408;2023-02-07T12:05:58;23.87;;;17.03;;
2105;SDS011;1059;52.548;13.408;2023-02-07T12:08:28;27.17;;;17.20;;
2105;SDS011;1059;52.548;13.408;2023-02-07T12:11:01;24.30;;;16.67;;
2105;SDS011;1059;52.548;13.408;2023-02-07T12:13:34;25.20;;;16.53;;
2105;SDS011;1059;52.548;13.408;2023-02-07T12:16:06;23.27;;;15.70;;
2105;SDS011;1059;52.548;13.408;2023-02-07T12:18:36;24.03;;;16.73;;
2105;SDS011;1059;52.548;13.408;2023-02-07T12:21:09;25.07;;;15.70;;
2105;SDS011;1059;52.548;13.408;2023-02-07T12:23:43;25.20;;;15.07;;
2105;SDS011;1059;52.548;13.408;2023-02-07T12:26:18;25.30;;;16.20;;
2105;SDS011;1059;52.548;13.408;2023-02-07T12:28:50;20.50;;;15.50;;
2105;SDS011;1059;52.548;13.408;2023-02-07T12:31:35;19.60;;;14.60;;
2105;SDS011;1059;52.548;13.408;2023-02-07T12:34:10;21.80;;;15.27;;
2105;SDS011;1059;52.548;13.408;2023-02-07T12:36:43;20.70;;;15.63;;
2105;SDS011;1059;52.548;13.408;2023-02-07T12:39:14;22.33;;;16.03;;
2105;SDS011;1059;52.548;13.408;2023-02-07T12:41:48;23.30;;;16.33;;
2105;SDS011;1059;52.548;13.408;2023-02-07T12:44:20;21.37;;;15.17;;
2105;SDS011;1059;52.548;13.408;2023-02-07T12:46:52;22.53;;;16.20;;
2105;SDS011;1059;52.548;13.408;2023-02-07T12:49:30;21.33;;;16.23;;
2105;SDS011;1059;52.548;13.408;2023-02-07T12:52:19;22.50;;;16.30;;
2105;SDS011;1059;52.548;13.408;2023-02-07T12:54:57;19.73;;;15.10;;
2105;SDS011;1059;52.548;13.408;2023-02-07T12:57:41;22.60;;;16.27;;
2105;SDS011;1059;52.548;13.408;2023-02-07T13:00:15;23.30;;;16.47;;
2105;SDS011;1059;52.548;13.408;2023-02-07T13:02:54;21.63;;;16.50;;
2105;SDS011;1059;52.548;13.408;2023-02-07T13:05:36;20.93;;;16.10;;
2105;SDS011;1059;52.548;13.408;2023-02-07T13:08:28;26.50;;;18.10;;
2105;SDS011;1059;52.548;13.408;2023-02-07T13:11:05;22.47;;;16.80;;
2105;SDS011;1059;52.548;13.408;2023-02-07T13:13:44;19.80;;;15.40;;
2105;SDS011;1059;52.548;13.408;2023-02-07T13:16:25;19.33;;;16.20;;
2105;SDS011;1059;52.548;13.408;2023-02-07T13:19:03;18.80;;;15.40;;
2105;SDS011;1059;52.548;13.408;2023-02-07T13:21:37;17.93;;;14.50;;
2105;SDS011;1059;52.548;13.408;2023-02-07T13:24:09;24.67;;;16.20;;
2105;SDS011;1059;52.548;13.408;2023-02-07T13:26:39;20.90;;;14.13;;
2105;SDS011;1059;52.548;13.408;2023-02-07T13:29:12;19.73;;;14.83;;
2105;SDS011;1059;52.548;13.408;2023-02-07T13:31:42;18.40;;;15.00;;
2105;SDS011;1059;52.548;13.408;2023-02-07T13:34:13;18.90;;;14.27;;
2105;SDS011;1059;52.548;13.408;2023-02-07T13:36:43;20.03;;;13.63;;
2105;SDS011;1059;52.548;13.408;2023-02-07T13:39:16;18.03;;;13.67;;
2105;SDS011;1059;52.548;13.408;2023-02-07T13:41:50;19.73;;;14.50;;
2105;SDS011;1059;52.548;13.408;2023-02-07T13:44:30;19.40;;;15.30;;
2105;SDS011;1059;52.548;13.408;2023-02-07T13:50:14;19.50;;;14.10;;
2105;SDS011;1059;52.548;13.408;2023-02-07T13:52:51;18.73;;;13.90;;
2105;SDS011;1059;52.548;13.408;2023-02-07T13:55:25;23.50;;;15.17;;
2105;SDS011;1059;52.548;13.408;2023-02-07T13:57:57;17.53;;;14.10;;
2105;SDS011;1059;52.548;13.408;2023-02-07T14:00:58;21.47;;;14.30;;
2105;SDS011;1059;52.548;13.408;2023-02-07T14:03:34;18.70;;;13.73;;
2105;SDS011;1059;52.548;13.408;2023-02-07T14:06:14;17.50;;;13.70;;
2105;SDS011;1059;52.548;13.408;2023-02-07T14:08:56;17.57;;;13.17;;
2105;SDS011;1059;52.548;13.408;2023-02-07T14:11:29;24.80;;;14.83;;
2105;SDS011;1059;52.548;13.408;2023-02-07T14:14:04;19.33;;;14.43;;
2105;SDS011;1059;52.548;13.408;2023-02-07T14:16:44;17.70;;;14.60;;
2105;SDS011;1059;52.548;13.408;2023-02-07T14:19:13;17.03;;;13.20;;
2105;SDS011;1059;52.548;13.408;2023-02-07T14:21:42;19.57;;;13.90;;
2105;SDS011;1059;52.548;13.408;2023-02-07T14:24:17;21.13;;;14.80;;
2105;SDS011;1059;52.548;13.408;2023-02-07T14:26:56;17.70;;;12.53;;
2105;SDS011;1059;52.548;13.408;2023-02-07T14:32:27;19.17;;;13.60;;
2105;SDS011;1059;52.548;13.408;2023-02-07T14:34:57;22.60;;;13.83;;
2105;SDS011;1059;52.548;13.408;2023-02-07T14:37:36;17.60;;;14.10;;
2105;SDS011;1059;52.548;13.408;2023-02-07T14:40:06;19.27;;;13.63;;
2105;SDS011;1059;52.548;13.408;2023-02-07T14:42:34;24.03;;;15.27;;
2105;SDS011;1059;52.548;13.408;2023-02-07T14:45:01;24.07;;;14.23;;
2105;SDS011;1059;52.548;13.408;2023-02-07T14:47:30;18.73;;;14.20;;
2105;SDS011;1059;52.548;13.408;2023-02-07T14:50:01;18.80;;;13.50;;
2105;SDS011;1059;52.548;13.408;2023-02-07T14:52:32;16.17;;;12.50;;
2105;SDS011;1059;52.548;13.408;2023-02-07T14:55:04;17.93;;;13.50;;
2105;SDS011;1059;52.548;13.408;2023-02-07T14:57:40;17.37;;;13.33;;
2105;SDS011;1059;52.548;13.408;2023-02-07T15:00:21;20.60;;;13.20;;
2105;SDS011;1059;52.548;13.408;2023-02-07T15:02:55;20.20;;;13.53;;